Latest Coastal Weather Observations for Troughton Island

IDD60701

Issued at 3:41 am CST Saturday 20 December 2014 (issued every 10 minutes, with the page automatically refreshed every 10 minutes)

About coastal observations | Map of coastal stations | Coastal observations for NT | Marine services | Other Formats
Station Details ID: 001007 Name: TROUGHTON ISLAND Lat: -13.75 Lon: 126.15 Height: 6.0 m
Data from the previous 72 hours. | See also: Recent months at Troughton Island
Date/Time
CST
Temp

°C
Wind Pressure Rain
since 9am
mm
Weather Cloud Vis
km
Sea
Height
m
Swell
Dir
 
Speed
knots
Gust
knots
hPa Trend Height
m
Period
s
Dir
20/03:30am 29.3 ESE 10 12 1008.9 - 0.0 - - - - - - -
20/03:00am 29.4 SSE 13 15 1009.4 - 0.0 - - - - - - -
20/02:30am 29.4 SSE 11 15 1009.4 - 0.0 - - - - - - -
20/02:00am 29.4 S 10 12 1009.5 - 0.0 - - - - - - -
20/01:30am 29.5 SW 8 9 1009.2 - 0.0 - - - - - - -
20/01:00am 29.6 SW 8 9 1009.9 - 0.0 - - - - - - -
20/12:30am 29.7 SW 8 10 1010.5 - 0.0 - - - - - - -
20/12:00am 30.1 W 9 10 1010.7 - 0.0 - - - - - - -
 
Date/Time
CST
Temp

°C
Wind Pressure Rain
since 9am
mm
Weather Cloud Vis
km
Sea
Height
m
Swell
Dir
 
Speed
knots
Gust
knots
hPa Trend Height
m
Period
s
Dir
19/11:30pm 30.2 W 10 11 1010.5 - 0.0 - - - - - - -
19/11:00pm 30.2 W 9 10 1010.6 - 0.0 - - - - - - -
19/10:30pm 30.0 W 7 8 1010.4 - 0.0 - - - - - - -
19/10:00pm 30.0 WSW 6 8 1010.3 - 0.0 - - - - - - -
19/09:30pm 30.1 WSW 8 10 1009.9 - 0.0 - - - - - - -
19/09:00pm 30.6 WSW 8 9 1009.7 - 0.0 - - - - - - -
19/08:30pm 30.6 WSW 8 10 1009.4 - 0.0 - - - - - - -
19/08:00pm 30.6 WSW 9 11 1009.2 - 0.0 - - - - - - -
19/07:30pm 30.4 W 9 10 1009.1 - 0.0 - - - - - - -
19/07:00pm 30.4 W 8 10 1008.4 - 0.0 - - - - - - -
19/06:30pm 30.5 W 7 8 1008.2 - 0.0 - - - - - - -
19/06:00pm 30.8 W 9 10 1007.9 - 0.0 - - - - - - -
19/05:30pm 31.3 NW 9 11 1007.2 - 0.0 - - - - - - -
19/05:00pm 31.5 NW 9 12 1007.0 - 0.0 - - - - - - -
19/04:30pm 32.0 NNW 9 11 1007.5 - 0.0 - - - - - - -
19/04:00pm 32.3 NNW 9 12 1007.4 - 0.0 - - - - - - -
19/03:30pm 31.7 N 8 11 1008.2 - 0.0 - - - - - - -
19/03:00pm 32.2 NNE 8 10 1008.9 - 0.0 - - - - - - -
19/02:30pm 31.4 NNE 7 9 1009.4 - 0.0 - - - - - - -
19/02:00pm 31.9 NE 6 8 1009.9 - 0.0 - - - - - - -
19/01:30pm 32.2 NE 6 10 1009.9 - 0.0 - - - - - - -
19/12:00pm 31.6 ENE 6 8 1010.6 - 0.0 - - - - - - -
19/11:30am 31.8 E 5 7 1010.7 - 0.0 - - - - - - -
19/11:00am 31.7 E 4 7 1010.7 - 0.0 - - - - - - -
19/10:30am 31.0 ESE 5 7 1010.8 - 0.0 - - - - - - -
19/10:00am 31.4 ESE 6 7 1010.7 - 0.0 - - - - - - -
19/09:30am 31.1 E 6 8 1010.6 - 0.0 - - - - - - -
19/09:00am 31.1 E 7 8 1010.4 - 0.0 - - - - - - -
19/08:30am 30.9 E 7 10 1010.2 - 0.0 - - - - - - -
19/08:00am 30.2 ENE 6 8 1009.9 - 0.0 - - - - - - -
19/07:30am 30.0 E 7 8 1009.4 - 0.0 - - - - - - -
19/07:00am 29.4 ESE 7 9 1009.0 - 0.0 - - - - - - -
19/06:30am 29.1 E 8 10 1008.4 - 0.0 - - - - - - -
19/06:00am 29.3 ESE 10 12 1008.3 - 0.0 - - - - - - -
19/05:30am 29.0 SE 6 7 1008.0 - 0.0 - - - - - - -
19/05:00am 28.6 SSE 6 7 1007.7 - 0.0 - - - - - - -
19/04:30am 28.9 SSE 8 11 1008.0 - 0.0 - - - - - - -
19/04:00am 28.9 SSE 11 13 1008.1 - 0.0 - - - - - - -
19/03:30am 28.6 SSE 9 11 1008.4 - 0.0 - - - - - - -
19/03:00am 28.8 SSE 11 14 1008.8 - 0.0 - - - - - - -
19/02:30am 28.8 SE 9 10 1009.2 - 0.0 - - - - - - -
19/02:00am 28.7 SE 10 13 1009.3 - 0.0 - - - - - - -
19/01:30am 28.9 SE 15 18 1009.8 - 0.0 - - - - - - -
19/01:00am 28.8 SSE 21 26 1010.3 - 0.0 - - - - - - -
19/12:30am 29.6 SSE 22 28 1010.6 - 0.0 - - - - - - -
19/12:25am 29.7 S 19 28 1010.5 - 0.0 - - - - - - -
19/12:00am 30.6 SW 14 18 1010.8 - 0.0 - - - - - - -
 
Date/Time
CST
Temp

°C
Wind Pressure Rain
since 9am
mm
Weather Cloud Vis
km
Sea
Height
m
Swell
Dir
 
Speed
knots
Gust
knots
hPa Trend Height
m
Period
s
Dir
18/11:30pm 30.6 WSW 14 16 1010.8 - 0.0 - - - - - - -
18/11:00pm 30.5 W 12 15 1010.5 - 0.0 - - - - - - -
18/10:30pm 30.6 W 12 14 1010.5 - 0.0 - - - - - - -
18/10:00pm 30.6 W 12 14 1010.0 - 0.0 - - - - - - -
18/09:30pm 30.6 W 12 13 1009.4 - 0.0 - - - - - - -
18/09:00pm 30.6 W 10 12 1008.7 - 0.0 - - - - - - -
18/08:30pm 30.6 WNW 9 11 1008.4 - 0.0 - - - - - - -
18/08:00pm 30.7 WNW 10 13 1008.0 - 0.0 - - - - - - -
18/07:30pm 30.9 WNW 11 13 1007.7 - 0.0 - - - - - - -
18/07:00pm 31.2 WNW 11 13 1007.1 - 0.0 - - - - - - -
18/06:30pm 32.0 WNW 11 13 1006.7 - 0.0 - - - - - - -
18/06:00pm 32.4 WNW 10 11 1006.6 - 0.0 - - - - - - -
18/05:30pm 32.5 WNW 10 12 1006.3 - 0.0 - - - - - - -
18/05:00pm 32.8 WNW 11 13 1006.1 - 0.0 - - - - - - -
18/04:30pm 33.1 W 10 12 1006.4 - 0.0 - - - - - - -
18/04:00pm 33.0 WNW 11 14 1006.8 - 0.0 - - - - - - -
18/03:30pm 33.6 W 11 13 1007.1 - 0.0 - - - - - - -
18/03:00pm 33.8 W 10 12 1007.5 - 0.0 - - - - - - -
18/02:30pm 33.3 W 9 11 1008.0 - 0.0 - - - - - - -
18/02:00pm 33.0 W 9 11 1008.4 - 0.0 - - - - - - -
18/01:30pm 33.2 WSW 8 10 1009.0 - 0.0 - - - - - - -
18/01:00pm 33.2 WSW 9 11 1009.4 - 0.0 - - - - - - -
18/12:30pm 33.0 WSW 11 13 1009.7 - 0.0 - - - - - - -
18/12:00pm 33.1 WSW 11 13 1009.8 - 0.0 - - - - - - -
18/11:30am 32.8 WSW 9 10 1009.9 - 0.0 - - - - - - -
18/11:00am 32.5 SW 8 11 1010.2 - 0.0 - - - - - - -
18/10:30am 32.4 SW 9 11 1010.3 - 0.0 - - - - - - -
18/10:00am 31.9 SW 10 12 1010.4 - 0.0 - - - - - - -
18/09:30am 32.0 WSW 11 13 1010.0 - 0.0 - - - - - - -
18/09:00am 31.8 WSW 10 12 1009.7 - 0.0 - - - - - - -
18/08:30am 31.2 WSW 11 13 1009.6 - 0.0 - - - - - - -
18/08:00am 30.6 W 10 11 1009.1 - 0.0 - - - - - - -
18/07:30am 30.0 W 11 12 1008.5 - 0.0 - - - - - - -
18/07:00am 29.9 WSW 12 14 1008.2 - 0.0 - - - - - - -
18/06:30am 29.7 WSW 12 15 1007.7 - 0.0 - - - - - - -
18/06:00am 29.6 W 11 13 1007.4 - 0.0 - - - - - - -
18/05:30am 29.7 WSW 10 12 1007.1 - 0.0 - - - - - - -
18/05:00am 29.7 WSW 12 14 1007.1 - 0.0 - - - - - - -
18/04:30am 29.7 W 11 14 1006.6 - 0.0 - - - - - - -
18/04:00am 29.6 W 10 12 1006.4 - 0.0 - - - - - - -
18/03:30am 29.6 W 10 12 1006.3 - 0.0 - - - - - - -
18/03:00am 29.7 W 11 13 1006.3 - 0.0 - - - - - - -
18/02:30am 29.9 WSW 11 12 1006.7 - 0.0 - - - - - - -
18/02:00am 29.8 W 11 14 1006.8 - 0.0 - - - - - - -
18/01:30am 29.8 W 11 13 1006.7 - 0.0 - - - - - - -
18/01:00am 29.9 W 10 12 1007.1 - 0.0 - - - - - - -
18/12:30am 29.9 W 9 10 1007.4 - 0.0 - - - - - - -
18/12:00am 29.9 W 9 10 1007.7 - 0.0 - - - - - - -
 
Date/Time
CST
Temp

°C
Wind Pressure Rain
since 9am
mm
Weather Cloud Vis
km
Sea
Height
m
Swell
Dir
 
Speed
knots
Gust
knots
hPa Trend Height
m
Period
s
Dir
17/11:30pm 30.0 W 8 9 1008.0 - 0.0 - - - - - - -
17/11:00pm 30.2 W 9 10 1008.0 - 0.0 - - - - - - -
17/10:30pm 30.2 W 8 9 1007.7 - 0.0 - - - - - - -
17/10:00pm 30.3 W 9 11 1007.8 - 0.0 - - - - - - -
17/09:30pm 30.4 W 9 11 1007.3 - 0.0 - - - - - - -
17/09:00pm 30.5 W 11 13 1007.1 - 0.0 - - - - - - -
17/08:30pm 30.6 WSW 12 13 1007.1 - 0.0 - - - - - - -
17/08:00pm 30.7 WSW 12 14 1006.8 - 0.0 - - - - - - -
17/07:30pm 30.8 WSW 13 16 1006.6 - 0.0 - - - - - - -
17/07:00pm 31.0 WSW 14 17 1006.5 - 0.0 - - - - - - -
17/06:30pm 31.2 W 15 18 1006.1 - 0.0 - - - - - - -
17/06:00pm 32.1 W 15 18 1005.9 - 0.0 - - - - - - -
17/05:30pm 32.5 W 13 15 1005.7 - 0.0 - - - - - - -
17/05:00pm 32.7 WNW 13 15 1005.4 - 0.0 - - - - - - -
17/04:30pm 32.9 WNW 12 15 1004.9 - 0.0 - - - - - - -
17/04:00pm 33.3 W 13 15 1004.8 - 0.0 - - - - - - -
17/03:30pm 33.3 WNW 13 15 1005.3 - 0.0 - - - - - - -
17/03:00pm 32.9 WNW 11 13 1005.4 - 0.0 - - - - - - -
17/02:30pm 33.2 W 12 14 1006.2 - 0.0 - - - - - - -
17/02:00pm 32.7 W 12 15 1006.8 - 0.0 - - - - - - -
17/01:30pm 32.8 W 10 11 1007.1 - 0.0 - - - - - - -
17/01:00pm 32.5 W 10 12 1007.4 - 0.0 - - - - - - -
17/12:30pm 32.0 W 8 9 1007.7 - 0.0 - - - - - - -
17/12:00pm 31.7 W 7 8 1008.1 - 0.0 - - - - - - -
17/11:30am 32.4 W 7 9 1008.4 - 0.0 - - - - - - -
17/11:00am 31.7 WSW 6 7 1008.5 - 0.0 - - - - - - -
17/10:30am 31.5 WSW 6 7 1008.6 - 0.0 - - - - - - -
17/10:00am 31.0 WSW 7 8 1008.3 - 0.0 - - - - - - -
17/09:30am 30.8 SW 7 9 1008.3 - 0.0 - - - - - - -
17/09:00am 30.5 SSW 7 8 1008.1 - 0.0 - - - - - - -
17/08:30am 30.1 SSW 8 11 1007.8 - 0.0 - - - - - - -
17/08:00am 29.8 SSW 8 9 1007.3 - 0.0 - - - - - - -
17/07:30am 29.6 SSW 8 10 1006.8 - 0.0 - - - - - - -
17/07:00am 29.3 S 10 11 1006.3 - 0.0 - - - - - - -
17/06:30am 29.4 SSW 11 14 1006.1 - 0.0 - - - - - - -
17/06:00am 29.4 SW 11 13 1005.6 - 0.0 - - - - - - -
17/05:30am 29.2 SW 11 13 1005.4 - 0.0 - - - - - - -

Other Formats:

Comma delimited format used in spreadsheet applications
http://www.bom.gov.au/fwo/IDD60701/IDD60701.94102.axf

JavaScript Object Notation format (JSON) in row-major order
http://www.bom.gov.au/fwo/IDD60701/IDD60701.94102.json